Time;durP1;ratioP1;P1;durP2;ratioP2;P2;SDS_P1;SDS_P2;PMS_P1;PMS_P2;Temp;Humidity;BMP_temperature;BMP_pressure;BME280_temperature;BME280_humidity;BME280_pressure;Samples;Min_cycle;Max_cycle;Signal;HPM_P1;HPM_P2
2023/07/02 00:01:40;;;;;;;19.20;8.02;;;14.00;99.90;;;;;;5010628;28;20550;-43
2023/07/02 00:04:08;;;;;;;20.83;8.38;;;16.20;99.90;;;;;;5010660;28;20029;-43
2023/07/02 00:06:40;;;;;;;22.27;8.57;;;15.10;99.90;;;;;;5010750;28;20034;-47
2023/07/02 00:09:06;;;;;;;22.67;8.43;;;15.90;99.90;;;;;;5000190;28;20026;-46
2023/07/02 00:11:32;;;;;;;19.52;7.30;;;16.20;99.90;;;;;;5010627;28;20121;-50
2023/07/02 00:13:57;;;;;;;19.98;8.55;;;13.90;99.90;;;;;;5010835;28;20122;-47
2023/07/02 00:16:23;;;;;;;21.00;7.85;;;14.90;99.90;;;;;;5010923;28;20126;-53
2023/07/02 00:18:52;;;;;;;16.75;7.30;;;14.50;99.90;;;;;;5010440;28;20501;-43
2023/07/02 00:21:21;;;;;;;20.25;8.57;;;13.20;99.90;;;;;;5010764;28;20133;-53
2023/07/02 00:23:47;;;;;;;20.93;7.67;;;12.80;99.90;;;;;;5010626;28;20091;-49
2023/07/02 00:26:13;;;;;;;17.90;7.75;;;;;;;;;;5000190;28;20255;-48
2023/07/02 00:28:39;;;;;;;23.13;8.15;;;15.40;99.90;;;;;;5010701;28;20517;-48
2023/07/02 00:31:04;;;;;;;16.17;7.38;;;16.60;99.90;;;;;;5010424;28;20022;-50
2023/07/02 00:33:31;;;;;;;22.05;8.52;;;15.90;99.90;;;;;;5010658;28;20037;-43
2023/07/02 00:35:57;;;;;;;20.83;7.40;;;12.80;99.90;;;;;;5010461;28;20022;-50
2023/07/02 00:38:23;;;;;;;18.08;7.00;;;14.10;99.90;;;;;;5009649;28;20045;-43
2023/07/02 00:40:49;;;;;;;16.67;7.88;;;13.40;99.90;;;;;;5010344;28;20021;-43
2023/07/02 00:43:14;;;;;;;23.90;8.13;;;15.30;99.90;;;;;;5010566;28;20030;-46
2023/07/02 00:45:40;;;;;;;25.45;8.15;;;14.50;99.90;;;;;;5010552;28;20022;-49
2023/07/02 00:48:06;;;;;;;20.65;7.68;;;13.10;99.90;;;;;;5011014;28;20083;-42
2023/07/02 00:50:32;;;;;;;18.40;6.93;;;13.20;99.90;;;;;;5014474;28;20084;-45
2023/07/02 00:52:58;;;;;;;19.40;7.82;;;16.40;99.90;;;;;;5014106;28;20034;-53
2023/07/02 00:55:24;;;;;;;17.20;6.82;;;15.00;99.90;;;;;;5014038;28;20038;-48
2023/07/02 00:57:50;;;;;;;19.73;8.00;;;15.90;99.90;;;;;;5014012;28;20029;-43
2023/07/02 01:00:16;;;;;;;21.20;7.57;;;12.80;99.90;;;;;;5014264;28;20446;-53
2023/07/02 01:02:43;;;;;;;19.52;7.93;;;12.80;99.90;;;;;;5013666;28;20030;-44
2023/07/02 01:05:14;;;;;;;22.92;8.00;;;14.60;99.90;;;;;;5013024;28;20056;-47
2023/07/02 01:07:39;;;;;;;19.05;8.43;;;16.60;99.90;;;;;;5013819;28;20022;-44
2023/07/02 01:10:05;;;;;;;19.40;8.13;;;15.10;99.90;;;;;;5013705;28;20073;-53
2023/07/02 01:12:32;;;;;;;21.17;7.38;;;13.90;99.90;;;;;;5013805;28;20056;-43
2023/07/02 01:15:01;;;;;;;18.85;7.85;;;15.40;99.90;;;;;;5013855;28;20038;-45
2023/07/02 01:17:28;;;;;;;16.08;7.05;;;15.40;99.90;;;;;;5013716;28;20091;-43
2023/07/02 01:19:58;;;;;;;16.02;7.25;;;14.80;99.90;;;;;;5013897;28;20025;-49
2023/07/02 01:22:26;;;;;;;20.48;7.82;;;14.60;99.90;;;;;;5013494;28;20359;-46
2023/07/02 01:24:52;;;;;;;17.40;7.05;;;16.00;99.90;;;;;;5013686;28;20049;-44
2023/07/02 01:27:18;;;;;;;16.98;7.45;;;13.10;99.90;;;;;;5013769;28;20029;-43
2023/07/02 01:29:47;;;;;;;14.95;7.40;;;16.60;99.90;;;;;;5013616;28;20755;-50
2023/07/02 01:32:15;;;;;;;22.33;7.18;;;13.30;99.90;;;;;;5013596;28;20042;-44
2023/07/02 01:34:43;;;;;;;20.48;8.20;;;15.50;99.90;;;;;;5013248;28;20080;-44
2023/07/02 01:37:09;;;;;;;18.90;6.93;;;15.50;99.90;;;;;;5013434;28;20037;-43
2023/07/02 01:39:35;;;;;;;20.40;7.30;;;15.50;99.90;;;;;;5013437;28;20108;-43
2023/07/02 01:42:27;;;;;;;20.33;7.60;;;15.00;99.90;;;;;;5013599;28;20626;-47
2023/07/02 01:44:53;;;;;;;18.75;7.30;;;14.80;99.90;;;;;;4998963;28;20084;-52
2023/07/02 01:47:19;;;;;;;17.70;7.40;;;15.40;99.90;;;;;;5013266;28;20069;-42
2023/07/02 01:49:45;;;;;;;24.10;7.15;;;;;;;;;;5013253;28;20109;-44
2023/07/02 01:52:11;;;;;;;17.15;7.07;;;16.30;99.90;;;;;;5012894;28;20029;-50
2023/07/02 01:54:37;;;;;;;20.88;7.18;;;13.00;99.90;;;;;;5012840;28;20033;-44
2023/07/02 01:57:03;;;;;;;21.65;7.53;;;14.40;99.90;;;;;;5013045;28;20026;-44
2023/07/02 01:59:29;;;;;;;16.30;6.93;;;;;;;;;;5012555;28;20510;-43
2023/07/02 02:01:55;;;;;;;17.23;6.93;;;15.00;99.90;;;;;;5012757;28;20081;-46
2023/07/02 02:04:21;;;;;;;16.92;7.13;;;;;;;;;;5012789;28;20042;-49
2023/07/02 02:06:46;;;;;;;19.20;6.57;;;14.90;99.90;;;;;;5012828;28;20030;-47
2023/07/02 02:09:12;;;;;;;22.17;7.13;;;14.80;99.90;;;;;;5012551;28;20081;-46
2023/07/02 02:11:41;;;;;;;18.92;6.53;;;12.40;99.90;;;;;;5012503;28;20018;-47
2023/07/02 02:14:06;;;;;;;14.93;6.47;;;16.00;99.90;;;;;;5012694;28;20084;-46
2023/07/02 02:16:33;;;;;;;18.67;7.15;;;13.10;99.90;;;;;;5012384;28;20014;-43
2023/07/02 02:18:59;;;;;;;19.25;7.07;;;16.00;99.90;;;;;;5012760;28;20176;-44
2023/07/02 02:21:26;;;;;;;19.48;7.50;;;12.10;99.90;;;;;;5012479;28;20522;-47
2023/07/02 02:23:51;;;;;;;18.25;6.30;;;14.00;99.90;;;;;;5012365;28;20033;-45
2023/07/02 02:26:17;;;;;;;22.60;7.93;;;14.00;99.90;;;;;;5012639;28;20018;-49
2023/07/02 02:28:43;;;;;;;20.90;7.20;;;14.00;99.90;;;;;;5012405;28;20030;-44
2023/07/02 02:31:08;;;;;;;23.88;7.35;;;14.70;99.90;;;;;;5012193;28;20479;-45
2023/07/02 02:33:35;;;;;;;17.55;6.50;;;15.80;99.90;;;;;;5012355;28;20512;-43
2023/07/02 02:36:01;;;;;;;19.20;6.70;;;;;;;;;;5012207;28;20127;-53
2023/07/02 02:38:27;;;;;;;20.90;6.95;;;;;;;;;;5012417;28;20037;-47
2023/07/02 02:40:53;;;;;;;22.08;6.70;;;14.60;99.90;;;;;;5012321;28;20034;-44
2023/07/02 02:43:18;;;;;;;13.50;5.55;;;15.40;99.90;;;;;;5012276;28;20570;-43
2023/07/02 02:45:44;;;;;;;21.58;6.97;;;12.00;99.90;;;;;;5012065;28;20030;-50
2023/07/02 02:48:10;;;;;;;17.98;6.85;;;12.90;99.90;;;;;;5011976;28;20026;-44
2023/07/02 02:50:38;;;;;;;15.77;6.15;;;14.00;99.90;;;;;;5012156;28;20687;-52
2023/07/02 02:53:03;;;;;;;14.70;5.93;;;13.70;99.90;;;;;;5011719;28;20022;-50
2023/07/02 02:55:29;;;;;;;19.73;7.68;;;14.10;99.90;;;;;;5011840;28;20036;-46
2023/07/02 02:57:55;;;;;;;15.35;6.05;;;13.00;99.90;;;;;;5027244;28;20018;-47
2023/07/02 03:00:20;;;;;;;17.73;6.85;;;12.70;99.90;;;;;;5027743;28;20087;-51
2023/07/02 03:02:46;;;;;;;18.52;7.00;;;14.30;99.90;;;;;;5022106;28;20018;-53
2023/07/02 03:05:12;;;;;;;14.93;5.93;;;14.20;99.90;;;;;;5027190;28;20083;-44
2023/07/02 03:07:38;;;;;;;15.88;5.93;;;12.30;99.90;;;;;;5031479;28;20458;-51
2023/07/02 03:10:05;;;;;;;16.45;6.75;;;12.40;99.90;;;;;;5031231;28;20132;-46
2023/07/02 03:12:30;;;;;;;19.98;6.40;;;14.60;99.90;;;;;;5030837;28;20017;-46
2023/07/02 03:14:56;;;;;;;16.35;5.75;;;15.60;99.90;;;;;;5031089;28;20040;-49
2023/07/02 03:17:22;;;;;;;22.23;6.78;;;14.50;99.90;;;;;;5031361;28;20540;-50
2023/07/02 03:19:47;;;;;;;17.67;5.57;;;11.50;99.90;;;;;;5031139;28;20029;-47
2023/07/02 03:22:13;;;;;;;19.55;7.13;;;13.70;99.90;;;;;;5031252;28;20025;-43
2023/07/02 03:24:39;;;;;;;19.20;6.85;;;12.40;99.90;;;;;;5031067;28;20072;-43
2023/07/02 03:27:05;;;;;;;16.73;5.68;;;13.80;99.90;;;;;;5031110;28;20049;-43
2023/07/02 03:29:31;;;;;;;22.48;6.20;;;13.40;99.90;;;;;;5031039;28;20017;-54
2023/07/02 03:31:57;;;;;;;18.33;5.93;;;14.70;99.90;;;;;;5030829;28;20440;-50
2023/07/02 03:34:23;;;;;;;17.98;6.15;;;12.00;99.90;;;;;;5030981;28;20037;-53
2023/07/02 03:36:49;;;;;;;17.90;6.30;;;12.60;99.90;;;;;;5030892;28;20500;-46
2023/07/02 03:39:16;;;;;;;16.27;6.35;;;12.50;99.90;;;;;;5031029;28;20034;-49
2023/07/02 03:41:41;;;;;;;13.48;5.70;;;14.20;99.90;;;;;;5030879;28;20108;-54
2023/07/02 03:44:07;;;;;;;14.05;5.82;;;13.80;99.90;;;;;;5030886;28;20430;-48
2023/07/02 03:46:33;;;;;;;16.30;5.88;;;15.40;99.90;;;;;;5030969;28;20113;-53
2023/07/02 03:48:58;;;;;;;21.38;6.18;;;15.40;99.90;;;;;;5030771;28;20021;-50
2023/07/02 03:51:24;;;;;;;21.85;5.95;;;13.40;99.90;;;;;;5030901;28;20567;-46
2023/07/02 03:53:49;;;;;;;15.90;6.80;;;13.40;99.90;;;;;;5029453;28;20075;-47
2023/07/02 03:56:15;;;;;;;27.45;7.05;;;14.90;99.90;;;;;;5030827;28;20067;-50
2023/07/02 03:58:41;;;;;;;18.27;6.65;;;13.20;99.90;;;;;;5030680;28;20083;-47
2023/07/02 04:01:06;;;;;;;18.45;6.15;;;14.00;99.90;;;;;;5029232;28;20025;-50
2023/07/02 04:03:32;;;;;;;15.02;5.32;;;11.70;99.90;;;;;;5017917;28;20160;-50
2023/07/02 04:05:57;;;;;;;19.00;5.95;;;13.70;99.90;;;;;;5027414;28;20021;-44
2023/07/02 04:08:28;;;;;;;18.73;5.78;;;;;;;;;;5030656;28;20030;-45
2023/07/02 04:10:54;;;;;;;18.45;6.20;;;14.30;99.90;;;;;;5019329;28;20043;-44
2023/07/02 04:13:20;;;;;;;15.00;5.22;;;15.40;99.90;;;;;;5014536;28;20036;-53
2023/07/02 04:15:45;;;;;;;18.92;6.20;;;14.80;99.90;;;;;;5010615;28;20109;-45
2023/07/02 04:18:11;;;;;;;16.35;5.85;;;;;;;;;;5010781;28;20030;-47
2023/07/02 04:20:40;;;;;;;15.05;5.97;;;13.30;99.90;;;;;;5010647;28;20390;-44
2023/07/02 04:23:06;;;;;;;26.60;6.97;;;13.30;99.90;;;;;;5013149;28;20014;-50
2023/07/02 04:25:32;;;;;;;20.25;6.15;;;14.50;99.90;;;;;;5014545;28;20026;-47
2023/07/02 04:27:58;;;;;;;20.40;6.70;;;13.00;99.90;;;;;;5014666;28;20032;-48
2023/07/02 04:30:24;;;;;;;15.57;5.65;;;14.10;99.90;;;;;;5014451;28;20041;-53
2023/07/02 04:32:53;;;;;;;17.45;6.25;;;14.60;99.90;;;;;;5014596;28;20093;-48
2023/07/02 04:35:19;;;;;;;16.02;5.65;;;12.80;99.90;;;;;;5014385;28;20038;-46
2023/07/02 04:37:45;;;;;;;13.98;6.13;;;11.80;99.90;;;;;;5014413;28;20025;-44
2023/07/02 04:40:10;;;;;;;18.67;5.72;;;13.30;99.90;;;;;;5014374;28;20034;-47
2023/07/02 04:42:37;;;;;;;15.77;5.70;;;13.50;99.90;;;;;;5014262;28;20406;-54
2023/07/02 04:45:04;;;;;;;21.63;6.82;;;12.30;99.90;;;;;;5014329;28;20065;-47
2023/07/02 04:47:30;;;;;;;21.17;6.43;;;14.50;99.90;;;;;;5014454;28;20038;-50
2023/07/02 04:49:56;;;;;;;17.02;4.70;;;;;;;;;;5014125;28;20028;-49
2023/07/02 04:52:21;;;;;;;18.08;6.57;;;10.80;99.90;;;;;;5013962;28;20033;-43
2023/07/02 04:54:47;;;;;;;13.98;5.15;;;;;;;;;;5014008;28;20478;-50
2023/07/02 04:57:14;;;;;;;17.20;6.40;;;14.50;99.90;;;;;;5013949;28;20073;-48
2023/07/02 04:59:41;;;;;;;17.88;5.93;;;14.80;99.90;;;;;;5014023;28;20476;-52
2023/07/02 05:02:07;;;;;;;12.15;5.32;;;12.50;99.90;;;;;;5013874;28;20018;-49
2023/07/02 05:04:33;;;;;;;18.35;6.60;;;14.80;99.90;;;;;;5017988;28;20489;-50
2023/07/02 05:07:00;;;;;;;19.73;5.68;;;12.50;99.90;;;;;;5033709;28;20010;-45
2023/07/02 05:09:25;;;;;;;14.68;5.18;;;15.80;99.90;;;;;;5033396;28;20474;-52
2023/07/02 05:11:51;;;;;;;12.05;5.53;;;14.90;99.90;;;;;;5033969;28;20032;-49
2023/07/02 05:14:16;;;;;;;14.18;5.63;;;15.80;99.90;;;;;;5021167;28;20431;-47
2023/07/02 05:16:42;;;;;;;13.70;5.45;;;15.30;99.90;;;;;;5014440;28;20029;-48
2023/07/02 05:19:08;;;;;;;16.70;6.00;;;13.80;99.90;;;;;;5013654;28;20398;-45
2023/07/02 05:21:34;;;;;;;16.58;6.13;;;;;;;;;;5013348;28;20396;-47
2023/07/02 05:23:59;;;;;;;13.70;5.60;;;17.20;99.90;;;;;;5013573;28;20029;-44
2023/07/02 05:26:26;;;;;;;15.05;5.35;;;16.10;99.90;;;;;;5013469;28;20107;-45
2023/07/02 05:28:52;;;;;;;13.63;5.35;;;;;;;;;;5030751;28;20026;-44
2023/07/02 05:31:18;;;;;;;14.00;5.75;;;15.80;99.90;;;;;;5033074;28;20061;-44
2023/07/02 05:33:44;;;;;;;16.02;6.03;;;16.10;99.90;;;;;;5032396;28;20076;-50
2023/07/02 05:36:09;;;;;;;14.20;5.03;;;16.20;99.90;;;;;;5033255;28;20026;-49
2023/07/02 05:38:35;;;;;;;20.02;6.38;;;17.20;99.90;;;;;;5032923;28;20057;-50
2023/07/02 05:41:02;;;;;;;13.32;5.32;;;16.90;99.90;;;;;;5025746;28;20018;-43
2023/07/02 05:43:28;;;;;;;14.82;5.82;;;15.60;99.90;;;;;;5015949;28;20024;-45
2023/07/02 05:45:53;;;;;;;16.38;6.10;;;16.40;99.90;;;;;;5013109;28;20096;-43
2023/07/02 05:48:19;;;;;;;15.93;5.93;;;15.70;99.90;;;;;;5013308;28;20057;-45
2023/07/02 05:50:45;;;;;;;14.00;4.80;;;16.60;99.90;;;;;;5012785;28;20030;-43
2023/07/02 05:53:10;;;;;;;14.82;5.28;;;16.10;99.90;;;;;;5013131;28;20022;-46
2023/07/02 05:55:37;;;;;;;11.10;4.53;;;15.10;99.90;;;;;;5012943;28;20534;-47
2023/07/02 05:58:02;;;;;;;21.58;5.05;;;16.80;99.90;;;;;;5013117;28;20075;-46
2023/07/02 06:00:29;;;;;;;16.52;5.60;;;17.30;99.90;;;;;;5012774;28;20053;-43
2023/07/02 06:02:54;;;;;;;14.63;5.60;;;17.70;99.90;;;;;;5012923;28;20467;-44
2023/07/02 06:05:20;;;;;;;16.23;5.60;;;18.40;99.90;;;;;;5024532;28;20079;-44
2023/07/02 06:07:46;;;;;;;11.25;4.53;;;18.90;99.90;;;;;;5032554;28;20033;-45
2023/07/02 06:10:11;;;;;;;13.05;4.82;;;20.40;99.90;;;;;;5029281;28;20064;-49
2023/07/02 06:12:37;;;;;;;12.50;5.00;;;19.80;99.90;;;;;;5007622;28;20031;-47
2023/07/02 06:15:03;;;;;;;12.50;5.15;;;20.40;99.90;;;;;;5012557;28;20038;-51
2023/07/02 06:17:30;;;;;;;12.88;5.22;;;20.80;99.90;;;;;;5012720;28;20478;-43
2023/07/02 06:19:57;;;;;;;12.80;5.03;;;21.20;99.90;;;;;;5012568;28;20072;-43
2023/07/02 06:22:23;;;;;;;10.85;4.50;;;21.60;99.90;;;;;;5012583;28;20389;-49
2023/07/02 06:24:49;;;;;;;14.68;4.93;;;21.90;99.90;;;;;;5012545;28;20026;-49
2023/07/02 06:27:14;;;;;;;9.93;4.50;;;21.90;99.90;;;;;;5012100;28;20033;-45
2023/07/02 06:29:40;;;;;;;10.82;4.68;;;22.30;99.90;;;;;;5012387;28;20058;-46
2023/07/02 06:32:06;;;;;;;12.30;5.10;;;22.70;99.90;;;;;;5012552;28;20392;-52
2023/07/02 06:34:32;;;;;;;14.27;4.28;;;22.80;99.90;;;;;;5012215;28;20084;-47
2023/07/02 06:36:57;;;;;;;11.60;4.20;;;23.00;99.90;;;;;;5011986;28;20483;-56
2023/07/02 06:39:23;;;;;;;11.23;4.60;;;23.30;99.90;;;;;;5010805;28;20482;-47
2023/07/02 06:41:49;;;;;;;10.15;4.57;;;23.60;99.90;;;;;;5012230;28;20057;-52
2023/07/02 06:44:14;;;;;;;10.00;4.28;;;23.80;99.90;;;;;;5011877;28;20026;-44
2023/07/02 06:46:40;;;;;;;10.57;4.22;;;24.00;99.90;;;;;;5010458;28;20018;-46
2023/07/02 06:49:06;;;;;;;10.55;4.45;;;24.30;99.90;;;;;;5012107;28;20092;-53
2023/07/02 06:51:34;;;;;;;9.07;4.20;;;24.60;99.90;;;;;;5011815;28;20026;-54
2023/07/02 06:53:59;;;;;;;11.10;4.07;;;24.80;99.90;;;;;;5011568;28;20044;-51
2023/07/02 06:56:25;;;;;;;11.68;4.93;;;24.90;99.90;;;;;;5012030;28;20026;-45
2023/07/02 06:58:50;;;;;;;11.85;4.55;;;25.10;99.90;;;;;;5011851;28;20037;-47
2023/07/02 07:01:16;;;;;;;11.23;3.85;;;25.40;99.90;;;;;;5012043;28;20100;-52
2023/07/02 07:03:42;;;;;;;9.77;4.85;;;25.10;99.90;;;;;;5011276;28;20096;-49
2023/07/02 07:06:07;;;;;;;10.55;4.40;;;25.30;99.90;;;;;;5026972;28;20493;-51
2023/07/02 07:08:33;;;;;;;10.43;3.78;;;25.90;99.90;;;;;;5020394;28;20026;-45
2023/07/02 07:10:58;;;;;;;8.07;3.55;;;26.00;99.90;;;;;;5011332;28;20049;-46
2023/07/02 07:13:24;;;;;;;13.00;4.97;;;26.10;99.90;;;;;;5010847;28;20034;-52
2023/07/02 07:15:50;;;;;;;10.60;3.67;;;26.20;98.00;;;;;;5009898;28;20044;-52
2023/07/02 07:18:15;;;;;;;8.70;3.88;;;26.50;99.30;;;;;;5011040;28;20026;-46
2023/07/02 07:20:41;;;;;;;10.63;4.20;;;26.70;97.80;;;;;;5011378;28;20022;-49
2023/07/02 07:23:07;;;;;;;9.38;4.03;;;27.00;96.80;;;;;;5011069;28;20036;-48
2023/07/02 07:25:32;;;;;;;11.13;3.80;;;27.10;98.30;;;;;;5011422;28;20026;-49
2023/07/02 07:27:59;;;;;;;7.80;3.65;;;27.00;97.70;;;;;;5011249;28;20030;-45
2023/07/02 07:30:25;;;;;;;7.32;3.17;;;27.00;94.70;;;;;;5016624;28;20032;-48
2023/07/02 07:32:51;;;;;;;8.00;3.42;;;27.00;94.60;;;;;;5031236;28;20029;-48
2023/07/02 07:35:18;;;;;;;6.70;3.08;;;27.00;94.80;;;;;;5030307;28;20030;-46
2023/07/02 07:37:44;;;;;;;8.05;3.08;;;27.20;97.10;;;;;;5022132;28;20037;-47
2023/07/02 07:40:10;;;;;;;9.63;3.75;;;27.30;95.90;;;;;;5011059;28;20030;-44
2023/07/02 07:42:36;;;;;;;10.13;3.88;;;27.50;94.30;;;;;;4991981;28;20026;-45
2023/07/02 07:45:03;;;;;;;7.43;3.10;;;27.60;94.00;;;;;;5003079;28;20419;-51
2023/07/02 07:47:29;;;;;;;7.05;3.30;;;27.30;91.90;;;;;;5010347;28;20496;-44
2023/07/02 07:49:54;;;;;;;7.40;3.30;;;27.50;94.30;;;;;;5002619;28;20057;-54
2023/07/02 07:52:20;;;;;;;7.78;3.38;;;27.50;93.40;;;;;;5002167;28;20046;-44
2023/07/02 07:54:46;;;;;;;7.07;3.40;;;27.70;92.40;;;;;;4996110;28;20430;-48
2023/07/02 07:57:12;;;;;;;7.18;3.15;;;27.80;93.60;;;;;;4997810;28;20030;-43
2023/07/02 07:59:38;;;;;;;7.10;3.00;;;28.00;92.40;;;;;;5010136;28;20049;-46
2023/07/02 08:02:04;;;;;;;7.22;2.83;;;28.00;92.90;;;;;;5003360;28;20091;-49
2023/07/02 08:04:29;;;;;;;9.95;3.63;;;28.20;89.50;;;;;;5006836;28;20104;-46
2023/07/02 08:06:56;;;;;;;6.97;2.97;;;28.00;90.30;;;;;;5002908;28;20467;-50
2023/07/02 08:09:23;;;;;;;7.20;2.60;;;27.80;91.10;;;;;;5000440;28;20042;-47
2023/07/02 08:11:49;;;;;;;8.82;3.00;;;27.40;85.50;;;;;;5005405;28;20041;-46
2023/07/02 08:14:15;;;;;;;9.73;2.60;;;27.30;86.30;;;;;;4996805;28;20153;-45
2023/07/02 08:16:41;;;;;;;5.22;2.42;;;27.50;89.40;;;;;;4992307;28;20018;-43
2023/07/02 08:19:07;;;;;;;7.68;2.55;;;27.60;89.80;;;;;;4991190;28;20497;-45
2023/07/02 08:21:32;;;;;;;7.13;2.78;;;27.80;89.90;;;;;;4999417;28;20081;-43
2023/07/02 08:23:58;;;;;;;6.75;2.72;;;27.80;88.80;;;;;;5001583;28;20053;-48
2023/07/02 08:26:23;;;;;;;6.95;2.47;;;28.30;90.00;;;;;;5001539;28;20033;-47
2023/07/02 08:28:49;;;;;;;8.05;2.45;;;28.50;89.80;;;;;;5001465;28;20101;-47
2023/07/02 08:31:15;;;;;;;5.88;2.40;;;28.40;84.10;;;;;;4998936;28;20463;-44
2023/07/02 08:33:40;;;;;;;5.07;2.50;;;28.30;83.00;;;;;;5000251;28;20091;-46
2023/07/02 08:36:06;;;;;;;5.93;2.40;;;28.30;85.70;;;;;;5007441;28;20049;-43
2023/07/02 08:38:31;;;;;;;7.20;2.28;;;28.30;86.90;;;;;;5009586;28;20030;-50
2023/07/02 08:40:57;;;;;;;7.90;2.22;;;28.10;81.40;;;;;;5007701;28;20143;-44
2023/07/02 08:43:26;;;;;;;5.28;2.22;;;28.60;82.10;;;;;;5006717;28;20025;-46
2023/07/02 08:45:52;;;;;;;6.80;2.50;;;28.40;80.60;;;;;;5005252;28;20030;-48
2023/07/02 08:48:22;;;;;;;5.50;2.20;;;27.90;83.20;;;;;;5008823;28;20088;-47
2023/07/02 08:50:49;;;;;;;6.40;2.53;;;27.40;79.10;;;;;;5009224;28;20018;-48
2023/07/02 08:53:15;;;;;;;7.30;2.75;;;26.40;81.90;;;;;;5007843;28;20030;-49
2023/07/02 08:55:40;;;;;;;7.53;2.22;;;26.50;85.00;;;;;;5003664;28;20037;-53
2023/07/02 08:58:06;;;;;;;7.70;2.28;;;26.20;83.30;;;;;;5007946;28;20104;-47
2023/07/02 09:00:36;;;;;;;4.85;2.50;;;26.00;86.10;;;;;;5007537;28;20022;-51
2023/07/02 09:03:17;;;;;;;6.80;2.17;;;26.10;84.10;;;;;;5010193;28;20105;-53
2023/07/02 09:05:51;;;;;;;6.43;2.33;;;26.30;88.40;;;;;;5024842;28;20029;-48
2023/07/02 09:08:24;;;;;;;6.50;2.22;;;27.20;87.90;;;;;;5018773;28;20033;-53
2023/07/02 09:10:50;;;;;;;6.50;2.40;;;27.30;85.40;;;;;;5008902;28;20041;-47
2023/07/02 09:13:16;;;;;;;5.03;2.08;;;27.40;80.30;;;;;;5013382;28;20030;-48
2023/07/02 09:15:42;;;;;;;5.03;2.00;;;26.50;80.80;;;;;;5011583;28;20034;-50
2023/07/02 09:18:22;;;;;;;4.65;1.60;;;25.50;76.50;;;;;;5015683;28;20029;-45
2023/07/02 09:20:51;;;;;;;4.25;2.10;;;25.00;77.10;;;;;;5007230;28;20032;-44
2023/07/02 09:23:17;;;;;;;5.88;1.88;;;25.20;86.80;;;;;;5007088;28;20105;-46
2023/07/02 09:25:42;;;;;;;6.53;2.40;;;25.70;84.90;;;;;;5006063;28;20156;-46
2023/07/02 09:28:18;;;;;;;7.55;1.90;;;26.50;83.40;;;;;;5021503;28;20084;-51
2023/07/02 09:30:54;;;;;;;8.25;2.13;;;27.10;78.60;;;;;;5013685;28;20098;-43
2023/07/02 09:33:20;;;;;;;6.00;1.85;;;27.00;76.20;;;;;;5005085;28;20019;-43
2023/07/02 09:35:46;;;;;;;6.97;2.17;;;27.20;78.00;;;;;;5010889;28;20490;-44
2023/07/02 09:38:13;;;;;;;8.57;4.40;;;27.50;80.70;;;;;;5004533;28;20025;-52
2023/07/02 09:40:45;;;;;;;8.75;2.42;;;27.80;77.40;;;;;;5007442;28;20048;-39
2023/07/02 09:43:12;;;;;;;6.00;2.22;;;27.70;74.70;;;;;;5008966;28;20053;-45
2023/07/02 09:45:41;;;;;;;4.60;2.00;;;27.70;73.60;;;;;;5012821;28;20026;-49
2023/07/02 09:48:08;;;;;;;5.50;1.92;;;27.60;78.70;;;;;;5012908;28;20022;-46
2023/07/02 09:50:34;;;;;;;5.78;2.33;;;27.90;75.10;;;;;;5011071;28;20014;-48
2023/07/02 09:53:00;;;;;;;5.13;1.70;;;28.30;72.00;;;;;;5012528;28;20116;-46
2023/07/02 09:55:26;;;;;;;8.55;2.22;;;28.40;73.40;;;;;;5011137;28;20061;-48
2023/07/02 09:57:52;;;;;;;3.63;1.80;;;27.90;74.00;;;;;;5007958;28;20390;-46
2023/07/02 10:00:18;;;;;;;7.30;2.20;;;26.70;69.50;;;;;;5000094;28;20160;-46
2023/07/02 10:02:51;;;;;;;5.50;2.03;;;25.60;70.50;;;;;;5012235;28;20026;-49
2023/07/02 10:05:30;;;;;;;4.20;1.88;;;26.00;83.10;;;;;;5022375;28;20021;-49
2023/07/02 10:08:16;;;;;;;4.68;1.85;;;26.90;77.10;;;;;;5031888;28;20017;-57
2023/07/02 10:10:42;;;;;;;5.25;1.95;;;27.10;73.20;;;;;;5031307;28;20049;-52
2023/07/02 10:13:08;;;;;;;6.05;2.05;;;26.90;75.50;;;;;;5031665;28;20031;-48
2023/07/02 10:15:37;;;;;;;5.53;1.60;;;26.80;74.10;;;;;;5032656;28;20041;-55
2023/07/02 10:18:04;;;;;;;6.63;2.72;;;26.10;75.00;;;;;;5031177;28;20061;-48
2023/07/02 10:20:37;;;;;;;7.53;2.20;;;26.10;78.30;;;;;;5030476;28;20470;-46
2023/07/02 10:23:03;;;;;;;6.65;2.15;;;27.00;73.70;;;;;;5031312;28;20025;-48
2023/07/02 10:25:37;;;;;;;4.03;1.70;;;27.50;77.00;;;;;;5031480;28;20033;-46
2023/07/02 10:28:20;;;;;;;5.78;2.42;;;27.70;71.80;;;;;;5031737;28;20120;-45
2023/07/02 10:30:45;;;;;;;5.68;2.03;;;27.60;73.20;;;;;;5032119;28;20037;-45
2023/07/02 10:33:13;;;;;;;4.68;2.05;;;27.00;73.40;;;;;;5008121;28;20071;-46
2023/07/02 10:35:42;;;;;;;7.15;2.35;;;26.80;77.30;;;;;;5032195;28;20470;-50
2023/07/02 10:38:13;;;;;;;7.63;2.45;;;27.00;72.10;;;;;;5032310;28;20029;-54
2023/07/02 10:40:39;;;;;;;5.38;2.35;;;26.70;75.10;;;;;;5030946;28;20116;-50
2023/07/02 10:43:05;;;;;;;3.90;1.67;;;25.60;71.00;;;;;;5032008;28;20494;-48
2023/07/02 10:45:32;;;;;;;5.53;1.92;;;25.30;79.50;;;;;;5032098;28;20014;-46
2023/07/02 10:47:58;;;;;;;7.88;3.67;;;25.40;79.10;;;;;;5031917;28;20037;-50
2023/07/02 10:50:25;;;;;;;8.57;7.60;;;25.40;79.10;;;;;;5032025;28;20018;-52
2023/07/02 10:52:51;;;;;;;9.23;4.13;;;25.20;79.20;;;;;;5031986;28;20021;-51
2023/07/02 10:55:24;;;;;;;5.47;1.92;;;24.90;78.30;;;;;;5031788;28;20033;-45
2023/07/02 10:58:01;;;;;;;5.93;2.00;;;24.80;82.00;;;;;;5031784;28;20025;-46
2023/07/02 11:00:27;;;;;;;5.53;2.15;;;24.60;81.20;;;;;;5031661;28;20022;-45
2023/07/02 11:02:53;;;;;;;4.97;1.73;;;24.60;84.00;;;;;;5031830;28;20110;-48
2023/07/02 11:05:18;;;;;;;5.32;1.83;;;24.40;78.70;;;;;;5031655;28;20393;-51
2023/07/02 11:07:44;;;;;;;5.05;1.98;;;25.10;82.50;;;;;;5031449;28;20029;-49
2023/07/02 11:10:18;;;;;;;5.03;2.00;;;25.70;79.80;;;;;;5031481;28;20123;-49
2023/07/02 11:12:44;;;;;;;5.18;1.73;;;25.90;75.30;;;;;;5031522;28;20025;-46
2023/07/02 11:15:20;;;;;;;6.22;2.15;;;25.60;76.60;;;;;;5030288;28;20124;-47
2023/07/02 11:17:46;;;;;;;5.20;2.10;;;25.00;78.40;;;;;;5030746;28;20017;-46
2023/07/02 11:20:14;;;;;;;5.60;1.90;;;24.80;80.70;;;;;;5031247;28;20029;-49
2023/07/02 11:22:41;;;;;;;3.80;1.48;;;24.40;77.00;;;;;;5030957;28;20026;-49
2023/07/02 11:25:13;;;;;;;4.05;1.80;;;24.00;78.70;;;;;;5031487;28;20163;-45
2023/07/02 11:27:40;;;;;;;7.93;2.28;;;23.70;79.10;;;;;;5031198;28;20104;-46
2023/07/02 11:30:06;;;;;;;5.80;2.20;;;23.60;85.50;;;;;;5031002;28;20030;-44
2023/07/02 11:32:48;;;;;;;6.93;2.25;;;23.80;81.80;;;;;;5030559;28;20021;-45
2023/07/02 11:35:14;;;;;;;4.18;2.08;;;24.70;84.10;;;;;;5031096;28;20044;-54
2023/07/02 11:37:39;;;;;;;4.30;1.65;;;25.20;78.40;;;;;;5031043;28;20025;-46
2023/07/02 11:40:05;;;;;;;4.93;1.80;;;25.20;76.80;;;;;;5031112;28;20029;-50
2023/07/02 11:42:31;;;;;;;6.25;2.22;;;25.00;79.80;;;;;;5031049;28;20033;-47
2023/07/02 11:44:56;;;;;;;4.40;1.67;;;25.10;80.80;;;;;;5030945;28;20027;-51
2023/07/02 11:47:22;;;;;;;4.43;1.70;;;25.10;79.60;;;;;;5030972;28;20074;-44
2023/07/02 11:49:48;;;;;;;4.10;1.77;;;24.80;79.40;;;;;;5030901;28;20542;-45
2023/07/02 11:52:14;;;;;;;6.10;1.90;;;24.70;81.30;;;;;;5030814;28;20120;-48
2023/07/02 11:54:40;;;;;;;3.53;1.33;;;24.40;78.10;;;;;;5031022;28;20301;-45
2023/07/02 11:57:06;;;;;;;6.93;1.67;;;24.50;79.80;;;;;;5030815;28;20430;-46
2023/07/02 11:59:31;;;;;;;6.55;2.15;;;24.80;83.40;;;;;;5021094;28;20449;-49
2023/07/02 12:01:57;;;;;;;3.58;1.30;;;24.90;80.50;;;;;;5026593;28;20049;-48
2023/07/02 12:04:23;;;;;;;4.10;1.98;;;25.10;76.80;;;;;;5030720;28;20022;-49
2023/07/02 12:06:48;;;;;;;6.13;1.75;;;25.00;78.90;;;;;;5030673;28;20103;-52
2023/07/02 12:09:14;;;;;;;4.25;1.50;;;24.90;79.80;;;;;;5030476;28;20039;-53
2023/07/02 12:11:40;;;;;;;7.03;1.83;;;24.60;77.20;;;;;;5030881;28;20026;-49
2023/07/02 12:14:05;;;;;;;4.78;1.63;;;24.80;80.00;;;;;;5030755;28;20091;-49
2023/07/02 12:16:31;;;;;;;5.80;2.38;;;24.80;76.90;;;;;;5030458;28;20025;-50
2023/07/02 12:18:57;;;;;;;2.95;1.30;;;24.30;77.80;;;;;;5030374;28;20429;-51
2023/07/02 12:21:22;;;;;;;3.35;1.42;;;24.10;77.40;;;;;;5029996;28;20033;-45
2023/07/02 12:23:48;;;;;;;6.72;1.70;;;24.00;81.10;;;;;;5028899;28;20148;-45
2023/07/02 12:26:13;;;;;;;5.75;1.75;;;24.00;78.70;;;;;;5030455;28;20037;-48
2023/07/02 12:28:39;;;;;;;3.63;1.50;;;24.30;81.60;;;;;;5030525;28;20021;-49
2023/07/02 12:31:05;;;;;;;3.38;1.60;;;24.90;77.90;;;;;;5030523;28;20112;-45
2023/07/02 12:33:30;;;;;;;4.22;1.90;;;25.50;82.90;;;;;;5030379;28;20068;-46
2023/07/02 12:35:56;;;;;;;3.72;1.42;;;25.90;82.50;;;;;;5030531;28;20486;-46
2023/07/02 12:38:21;;;;;;;3.42;1.40;;;26.00;75.50;;;;;;5030336;28;20056;-46
2023/07/02 12:40:48;;;;;;;5.05;1.60;;;25.40;73.60;;;;;;5030371;28;20041;-55
2023/07/02 12:43:14;;;;;;;4.05;1.45;;;24.90;72.80;;;;;;5031381;28;20052;-47